createdAt,value
2019-04-06T00:01:52.087Z,17.30
2019-04-06T00:04:20.465Z,18.80
2019-04-06T00:06:49.357Z,13.80
2019-04-06T00:09:17.751Z,17.67
2019-04-06T00:11:46.147Z,19.47
2019-04-06T00:14:14.556Z,18.65
2019-04-06T00:16:42.959Z,17.23
2019-04-06T00:19:11.349Z,20.23
2019-04-06T00:21:39.762Z,19.67
2019-04-06T00:24:08.151Z,18.53
2019-04-06T00:26:36.542Z,19.37
2019-04-06T00:29:05.213Z,17.27
2019-04-06T00:31:41.227Z,19.97
2019-04-06T00:34:09.699Z,16.42
2019-04-06T00:36:38.100Z,18.70
2019-04-06T00:39:06.504Z,16.37
2019-04-06T00:41:35.221Z,17.20
2019-04-06T00:44:03.642Z,19.90
2019-04-06T00:46:32.031Z,19.93
2019-04-06T00:49:00.417Z,19.33
2019-04-06T00:51:28.824Z,20.53
2019-04-06T00:53:57.232Z,18.70
2019-04-06T00:56:25.617Z,17.83
2019-04-06T00:58:54.037Z,18.00
2019-04-06T01:01:22.421Z,18.07
2019-04-06T01:03:50.834Z,23.47
2019-04-06T01:06:19.327Z,18.43
2019-04-06T01:08:47.809Z,19.60
2019-04-06T01:11:16.190Z,25.23
2019-04-06T01:13:44.597Z,21.40
2019-04-06T01:16:13.357Z,19.03
2019-04-06T01:18:41.756Z,19.10
2019-04-06T01:21:10.165Z,18.87
2019-04-06T01:23:38.558Z,17.67
2019-04-06T01:26:07.795Z,19.63
2019-04-06T01:28:36.356Z,20.57
2019-04-06T01:31:04.944Z,19.45
2019-04-06T01:33:33.332Z,19.33
2019-04-06T01:36:01.742Z,24.47
2019-04-06T01:38:30.224Z,23.13
2019-04-06T01:40:58.621Z,20.33
2019-04-06T01:43:28.029Z,21.07
2019-04-06T01:45:56.420Z,21.90
2019-04-06T01:48:24.865Z,21.90
2019-04-06T01:50:53.281Z,24.13
2019-04-06T01:53:21.678Z,20.77
2019-04-06T01:55:50.069Z,21.53
2019-04-06T01:58:18.472Z,20.92
2019-04-06T02:01:00.679Z,23.77
2019-04-06T02:03:29.362Z,23.87
2019-04-06T02:05:57.756Z,23.53
2019-04-06T02:08:26.140Z,21.07
2019-04-06T02:10:56.237Z,22.40
2019-04-06T02:13:24.587Z,26.70
2019-04-06T02:15:52.972Z,23.53
2019-04-06T02:18:21.343Z,22.30
2019-04-06T02:20:49.704Z,26.27
2019-04-06T02:23:19.639Z,19.60
2019-04-06T02:25:48.027Z,23.17
2019-04-06T02:28:16.331Z,18.77
2019-04-06T02:30:46.329Z,22.90
2019-04-06T02:33:16.393Z,21.02
2019-04-06T02:35:46.556Z,25.13
2019-04-06T02:38:19.541Z,26.20
2019-04-06T02:40:57.187Z,22.27
2019-04-06T02:43:27.196Z,24.03
2019-04-06T02:45:58.379Z,24.63
2019-04-06T02:48:26.757Z,21.93
2019-04-06T02:50:55.390Z,24.83
2019-04-06T02:53:23.961Z,22.27
2019-04-06T02:55:52.282Z,24.07
2019-04-06T02:58:23.630Z,23.53
2019-04-06T03:00:52.749Z,24.80
2019-04-06T03:03:21.418Z,24.65
2019-04-06T03:05:49.785Z,23.33
2019-04-06T03:08:18.356Z,27.57
2019-04-06T03:10:46.758Z,24.98
2019-04-06T03:13:15.146Z,22.63
2019-04-06T03:15:43.574Z,23.43
2019-04-06T03:18:11.943Z,23.77
2019-04-06T03:20:40.311Z,22.37
2019-04-06T03:23:08.717Z,22.97
2019-04-06T03:25:37.056Z,26.97
2019-04-06T03:28:05.359Z,25.73
2019-04-06T03:30:33.657Z,22.37
2019-04-06T03:33:02.035Z,23.77
2019-04-06T03:35:30.965Z,25.80
2019-04-06T03:37:59.463Z,26.17
2019-04-06T03:40:28.021Z,21.25
2019-04-06T03:42:56.396Z,22.87
2019-04-06T03:45:24.717Z,24.67
2019-04-06T03:47:53.212Z,20.17
2019-04-06T03:50:21.672Z,25.30
2019-04-06T03:52:50.009Z,23.23
2019-04-06T03:55:18.300Z,22.27
2019-04-06T03:57:46.538Z,23.77
2019-04-06T04:00:14.863Z,25.13
2019-04-06T04:02:43.203Z,26.87
2019-04-06T04:05:11.720Z,22.63
2019-04-06T04:07:40.206Z,25.40
2019-04-06T04:10:08.588Z,23.43
2019-04-06T04:12:36.952Z,24.43
2019-04-06T04:15:05.882Z,25.70
2019-04-06T04:17:34.443Z,21.63
2019-04-06T04:20:02.983Z,22.43
2019-04-06T04:22:31.227Z,25.47
2019-04-06T04:24:59.506Z,24.10
2019-04-06T04:27:30.282Z,23.70
2019-04-06T04:29:57.701Z,23.90
2019-04-06T04:32:25.974Z,22.33
2019-04-06T04:34:54.279Z,21.90
2019-04-06T04:37:22.525Z,24.92
2019-04-06T04:39:51.281Z,22.57
2019-04-06T04:42:19.586Z,22.73
2019-04-06T04:44:47.821Z,24.87
2019-04-06T04:47:16.239Z,21.37
2019-04-06T04:49:44.545Z,22.10
2019-04-06T04:52:13.015Z,20.37
2019-04-06T04:54:41.378Z,26.20
2019-04-06T04:57:09.621Z,20.92
2019-04-06T04:59:37.869Z,23.50
2019-04-06T05:02:06.209Z,24.27
2019-04-06T05:04:34.449Z,25.97
2019-04-06T05:07:02.693Z,24.77
2019-04-06T05:09:30.947Z,23.30
2019-04-06T05:11:59.337Z,23.37
2019-04-06T05:14:58.666Z,20.37
2019-04-06T05:17:26.984Z,24.70
2019-04-06T05:19:55.234Z,24.60
2019-04-06T05:22:23.595Z,19.13
2019-04-06T05:24:51.994Z,25.60
2019-04-06T05:27:20.301Z,26.07
2019-04-06T05:29:48.608Z,24.07
2019-04-06T05:32:16.842Z,24.05
2019-04-06T05:34:45.159Z,24.40
2019-04-06T05:37:13.597Z,20.63
2019-04-06T05:39:41.854Z,23.33
2019-04-06T05:42:10.099Z,24.40
2019-04-06T05:44:38.362Z,23.23
2019-04-06T05:47:06.620Z,23.50
2019-04-06T05:49:34.862Z,22.93
2019-04-06T05:52:03.581Z,25.90
2019-04-06T05:54:31.829Z,20.70
2019-04-06T05:57:00.107Z,25.77
2019-04-06T05:59:28.399Z,18.40
2019-04-06T06:01:56.717Z,25.37
2019-04-06T06:04:24.956Z,25.13
2019-04-06T06:06:53.200Z,23.63
2019-04-06T06:09:21.445Z,22.43
2019-04-06T06:11:49.674Z,30.73
2019-04-06T06:14:18.177Z,27.70
2019-04-06T06:16:46.418Z,26.17
2019-04-06T06:19:14.663Z,25.40
2019-04-06T06:21:42.927Z,26.70
2019-04-06T06:24:11.445Z,27.50
2019-04-06T06:26:39.765Z,28.00
2019-04-06T06:29:08.017Z,29.67
2019-04-06T06:31:36.283Z,31.60
2019-04-06T06:34:05.101Z,34.17
2019-04-06T06:36:33.454Z,29.03
2019-04-06T06:39:01.693Z,33.10
2019-04-06T06:41:29.987Z,30.47
2019-04-06T06:43:58.289Z,28.30
2019-04-06T06:46:26.518Z,31.43
2019-04-06T06:48:54.784Z,33.43
2019-04-06T06:51:23.094Z,33.00
2019-04-06T06:53:51.697Z,29.33
2019-04-06T06:56:19.935Z,32.87
2019-04-06T06:58:48.193Z,33.93
2019-04-06T07:01:16.433Z,35.50
2019-04-06T07:03:44.688Z,33.90
2019-04-06T07:06:13.007Z,32.70
2019-04-06T07:08:41.451Z,35.67
2019-04-06T07:11:09.925Z,31.55
2019-04-06T07:13:38.284Z,37.53
2019-04-06T07:16:06.511Z,30.80
2019-04-06T07:18:34.830Z,38.70
2019-04-06T07:21:03.102Z,35.83
2019-04-06T07:23:31.361Z,34.70
2019-04-06T07:25:59.675Z,30.63
2019-04-06T07:28:37.084Z,32.47
2019-04-06T07:30:57.901Z,35.80
2019-04-06T07:33:26.141Z,34.90
2019-04-06T07:35:54.403Z,35.07
2019-04-06T07:38:22.846Z,40.65
2019-04-06T07:40:51.197Z,38.93
2019-04-06T07:43:19.459Z,36.17
2019-04-06T07:45:47.773Z,36.03
2019-04-06T07:48:16.053Z,35.20
2019-04-06T07:50:44.319Z,37.30
2019-04-06T07:53:13.958Z,34.60
2019-04-06T07:55:42.440Z,39.67
2019-04-06T07:58:10.706Z,40.70
2019-04-06T08:00:38.958Z,39.97
2019-04-06T08:03:07.213Z,36.33
2019-04-06T08:05:35.489Z,42.17
2019-04-06T08:08:03.755Z,44.83
2019-04-06T08:10:32.016Z,41.23
2019-04-06T08:13:00.265Z,45.00
2019-04-06T08:15:28.496Z,41.33
2019-04-06T08:17:56.737Z,43.43
2019-04-06T08:20:26.814Z,42.47
2019-04-06T08:22:55.081Z,39.57
2019-04-06T08:25:23.320Z,40.83
2019-04-06T08:27:51.821Z,41.40
2019-04-06T08:30:20.061Z,40.70
2019-04-06T08:32:48.335Z,44.57
2019-04-06T08:35:25.439Z,43.50
2019-04-06T08:37:48.270Z,38.07
2019-04-06T08:40:16.599Z,42.87
2019-04-06T08:42:45.321Z,41.13
2019-04-06T08:45:14.496Z,46.00
2019-04-06T08:47:42.987Z,48.80
2019-04-06T08:50:11.690Z,45.87
2019-04-06T08:52:39.915Z,47.17
2019-04-06T08:55:08.247Z,40.63
2019-04-06T08:57:37.143Z,41.50
2019-04-06T09:00:06.924Z,41.77
2019-04-06T09:02:35.435Z,40.97
2019-04-06T09:05:05.437Z,37.87
2019-04-06T09:07:33.890Z,36.40
2019-04-06T09:10:02.200Z,36.33
2019-04-06T09:12:30.621Z,41.30
2019-04-06T09:14:59.018Z,38.30
2019-04-06T09:17:27.377Z,38.73
2019-04-06T09:19:55.761Z,39.20
2019-04-06T09:22:24.033Z,39.53
2019-04-06T09:24:52.296Z,35.83
2019-04-06T09:27:20.641Z,38.97
2019-04-06T09:29:48.886Z,34.80
2019-04-06T09:32:17.134Z,37.53
2019-04-06T09:34:45.405Z,37.20
2019-04-06T09:37:13.647Z,40.47
2019-04-06T09:39:41.901Z,36.17
2019-04-06T09:42:10.152Z,38.93
2019-04-06T09:44:40.030Z,31.83
2019-04-06T09:47:09.917Z,36.87
2019-04-06T09:49:39.885Z,38.33
2019-04-06T09:52:09.768Z,38.60
2019-04-06T09:54:48.685Z,34.10
2019-04-06T09:57:24.447Z,34.00
2019-04-06T10:00:01.399Z,31.60
2019-04-06T10:02:47.820Z,35.23
2019-04-06T10:05:24.316Z,35.40
2019-04-06T10:08:12.921Z,33.60
2019-04-06T10:10:48.661Z,28.70
2019-04-06T10:13:21.219Z,30.17
2019-04-06T10:16:00.180Z,29.32
2019-04-06T10:18:42.180Z,31.40
2019-04-06T10:21:21.455Z,33.25
2019-04-06T10:24:00.339Z,26.53
2019-04-06T10:26:33.006Z,26.10
2019-04-06T10:29:08.600Z,27.77
2019-04-06T10:31:44.745Z,26.30
2019-04-06T10:34:29.708Z,26.47
2019-04-06T10:37:05.540Z,26.57
2019-04-06T10:39:41.175Z,22.73
2019-04-06T10:42:11.309Z,23.77
2019-04-06T10:44:45.655Z,28.20
2019-04-06T10:47:32.250Z,22.80
2019-04-06T10:50:18.320Z,23.00
2019-04-06T10:52:51.155Z,21.50
2019-04-06T10:55:29.727Z,21.77
2019-04-06T10:57:59.613Z,20.07
2019-04-06T11:00:36.400Z,19.70
2019-04-06T11:03:18.773Z,21.23
2019-04-06T11:05:48.653Z,20.07
2019-04-06T11:08:21.257Z,18.23
2019-04-06T11:10:51.238Z,18.50
2019-04-06T11:13:24.066Z,17.62
2019-04-06T11:16:10.523Z,16.97
2019-04-06T11:18:40.929Z,15.67
2019-04-06T11:21:11.099Z,16.10
2019-04-06T11:23:41.290Z,15.70
2019-04-06T11:26:13.869Z,15.67
2019-04-06T11:28:44.085Z,14.33
2019-04-06T11:31:30.415Z,15.58
2019-04-06T11:34:05.766Z,16.40
2019-04-06T11:36:52.241Z,16.70
2019-04-06T11:39:25.342Z,17.00
2019-04-06T11:41:55.504Z,16.03
2019-04-06T11:44:37.720Z,17.07
2019-04-06T11:47:16.658Z,15.30
2019-04-06T11:50:05.106Z,14.73
2019-04-06T11:52:40.943Z,19.33
2019-04-06T11:55:20.053Z,16.90
2019-04-06T11:57:58.985Z,16.37
2019-04-06T12:00:34.874Z,16.40
2019-04-06T12:03:17.474Z,17.70
2019-04-06T12:05:47.639Z,18.27
2019-04-06T12:08:20.305Z,19.60
2019-04-06T12:10:59.274Z,14.68
2019-04-06T12:13:29.215Z,14.17
2019-04-06T12:15:59.093Z,14.77
2019-04-06T12:18:34.753Z,14.23
2019-04-06T12:21:23.033Z,19.07
2019-04-06T12:23:55.931Z,15.93
2019-04-06T12:26:28.812Z,13.90
2019-04-06T12:29:10.802Z,14.80
2019-04-06T12:31:43.361Z,12.90
2019-04-06T12:34:15.897Z,13.47
2019-04-06T12:37:01.904Z,14.70
2019-04-06T12:39:34.824Z,12.57
2019-04-06T12:42:23.085Z,10.43
2019-04-06T12:44:52.978Z,15.70
2019-04-06T12:47:25.510Z,16.27
2019-04-06T12:50:12.174Z,14.78
2019-04-06T12:52:58.251Z,15.93
2019-04-06T12:55:34.135Z,14.97
2019-04-06T12:58:20.601Z,15.60
2019-04-06T13:00:53.059Z,14.30
2019-04-06T13:03:27.798Z,13.37
2019-04-06T13:06:00.997Z,16.23
2019-04-06T13:08:30.863Z,11.53
2019-04-06T13:11:19.897Z,13.37
2019-04-06T13:13:58.993Z,17.43
2019-04-06T13:16:45.304Z,12.77
2019-04-06T13:19:24.134Z,13.40
2019-04-06T13:22:12.185Z,15.43
2019-04-06T13:24:42.068Z,14.63
2019-04-06T13:27:18.050Z,15.13
2019-04-06T13:29:59.866Z,15.70
2019-04-06T13:32:35.749Z,14.73
2019-04-06T13:35:12.559Z,14.70
2019-04-06T13:38:00.607Z,13.10
2019-04-06T13:40:47.102Z,16.63
2019-04-06T13:43:17.037Z,16.55
2019-04-06T13:46:03.348Z,14.40
2019-04-06T13:48:39.212Z,13.90
2019-04-06T13:51:09.506Z,15.87
2019-04-06T13:53:45.781Z,16.53
2019-04-06T13:56:21.917Z,19.87
2019-04-06T13:58:54.596Z,13.57
2019-04-06T14:01:39.746Z,13.17
2019-04-06T14:04:12.794Z,12.13
2019-04-06T14:06:45.366Z,13.80
2019-04-06T14:09:15.358Z,13.25
2019-04-06T14:11:57.386Z,14.43
2019-04-06T14:14:29.191Z,16.97
2019-04-06T14:17:04.984Z,14.90
2019-04-06T14:19:51.462Z,16.63
2019-04-06T14:22:21.678Z,17.02
2019-04-06T14:24:51.677Z,15.67
2019-04-06T14:27:38.435Z,17.07
2019-04-06T14:30:17.293Z,16.30
2019-04-06T14:32:59.297Z,16.13
2019-04-06T14:35:35.166Z,11.67
2019-04-06T14:38:08.055Z,15.83
2019-04-06T14:40:38.203Z,12.83
2019-04-06T14:43:14.027Z,15.50
2019-04-06T14:45:46.719Z,16.50
2019-04-06T14:48:25.722Z,16.00
2019-04-06T14:50:55.664Z,15.23
2019-04-06T14:53:28.548Z,12.60
2019-04-06T14:55:58.902Z,18.53
2019-04-06T14:58:29.127Z,13.97
2019-04-06T15:01:01.765Z,16.10
2019-04-06T15:03:38.147Z,20.40
2019-04-06T15:06:17.111Z,16.37
2019-04-06T15:08:47.688Z,15.73
2019-04-06T15:11:36.065Z,15.43
2019-04-06T15:14:08.990Z,16.77
2019-04-06T15:16:54.148Z,15.87
2019-04-06T15:19:42.606Z,16.27
2019-04-06T15:22:28.710Z,14.30
2019-04-06T15:25:13.950Z,12.90
2019-04-06T15:27:56.237Z,13.70
2019-04-06T15:30:42.516Z,15.17
2019-04-06T15:33:21.942Z,17.63
2019-04-06T15:35:52.040Z,17.77
2019-04-06T15:38:30.953Z,17.30
2019-04-06T15:41:13.108Z,17.75
2019-04-06T15:43:45.893Z,16.13
2019-04-06T15:46:15.767Z,16.37
2019-04-06T15:49:04.053Z,19.50
2019-04-06T15:51:46.383Z,18.60
2019-04-06T15:54:16.453Z,16.95
2019-04-06T15:57:01.357Z,17.47
2019-04-06T15:59:34.159Z,19.87
2019-04-06T16:02:22.154Z,19.27
2019-04-06T16:05:01.938Z,18.87
2019-04-06T16:07:48.094Z,17.30
2019-04-06T16:10:21.126Z,17.67
2019-04-06T16:12:51.192Z,16.50
2019-04-06T16:15:21.180Z,14.60
2019-04-06T16:17:51.151Z,14.87
2019-04-06T16:20:27.901Z,21.13
2019-04-06T16:23:14.595Z,18.77
2019-04-06T16:25:47.491Z,18.90
2019-04-06T16:28:17.408Z,18.95
2019-04-06T16:30:51.455Z,18.50
2019-04-06T16:33:30.349Z,19.27
2019-04-06T16:36:06.313Z,21.03
2019-04-06T16:38:42.216Z,18.60
2019-04-06T16:41:28.644Z,18.90
2019-04-06T16:43:58.655Z,18.40
2019-04-06T16:46:46.964Z,18.97
2019-04-06T16:49:19.798Z,19.25
2019-04-06T16:51:49.711Z,17.40
2019-04-06T16:54:25.306Z,18.77
2019-04-06T16:56:57.930Z,19.80
2019-04-06T16:59:44.287Z,17.60
2019-04-06T17:02:22.992Z,18.03
2019-04-06T17:04:48.763Z,20.20
2019-04-06T17:07:19.367Z,17.17
2019-04-06T17:09:58.335Z,18.00
2019-04-06T17:12:31.680Z,16.67
2019-04-06T17:15:04.560Z,22.10
2019-04-06T17:17:39.379Z,21.93
2019-04-06T17:20:16.061Z,21.00
2019-04-06T17:22:55.154Z,21.47
2019-04-06T17:25:27.780Z,22.67
2019-04-06T17:28:14.170Z,25.07
2019-04-06T17:30:44.065Z,24.10
2019-04-06T17:33:30.635Z,23.83
2019-04-06T17:36:04.122Z,24.07
2019-04-06T17:38:34.071Z,23.73
2019-04-06T17:41:07.319Z,25.00
2019-04-06T17:43:54.248Z,23.70
2019-04-06T17:46:27.187Z,24.47
2019-04-06T17:49:13.412Z,23.37
2019-04-06T17:51:44.686Z,26.10
2019-04-06T17:54:20.325Z,20.93
2019-04-06T17:56:56.014Z,24.23
2019-04-06T17:59:43.870Z,24.47
2019-04-06T18:02:20.334Z,24.00
2019-04-06T18:05:06.437Z,24.57
2019-04-06T18:07:39.458Z,20.83
2019-04-06T18:10:15.487Z,28.97
2019-04-06T18:13:01.913Z,28.80
2019-04-06T18:15:30.733Z,30.03
2019-04-06T18:17:59.033Z,22.23
2019-04-06T18:20:27.633Z,25.73
2019-04-06T18:22:56.007Z,28.60
2019-04-06T18:25:24.249Z,30.40
2019-04-06T18:27:52.631Z,22.77
2019-04-06T18:30:21.287Z,28.52
2019-04-06T18:32:59.904Z,27.37
2019-04-06T18:35:23.362Z,29.07
2019-04-06T18:38:02.161Z,30.50
2019-04-06T18:40:32.054Z,26.13
2019-04-06T18:43:00.305Z,30.87
2019-04-06T18:45:30.297Z,23.73
2019-04-06T18:47:58.731Z,31.43
2019-04-06T18:50:34.148Z,29.17
2019-04-06T18:52:56.954Z,24.60
2019-04-06T18:55:25.468Z,28.25
2019-04-06T18:57:53.816Z,32.73
2019-04-06T19:00:22.058Z,31.07
2019-04-06T19:02:50.390Z,33.97
2019-04-06T19:05:18.650Z,26.33
2019-04-06T19:07:47.137Z,27.93
2019-04-06T19:10:15.632Z,31.57
2019-04-06T19:12:43.849Z,28.83
2019-04-06T19:15:12.436Z,26.57
2019-04-06T19:17:40.730Z,29.20
2019-04-06T19:20:09.164Z,31.07
2019-04-06T19:22:37.710Z,30.10
2019-04-06T19:25:07.025Z,29.87
2019-04-06T19:27:35.280Z,33.13
2019-04-06T19:30:08.161Z,30.17
2019-04-06T19:32:36.892Z,38.43
2019-04-06T19:35:08.883Z,37.23
2019-04-06T19:37:37.279Z,40.20
2019-04-06T19:40:07.259Z,36.40
2019-04-06T19:42:35.494Z,31.63
2019-04-06T19:45:05.688Z,32.53
2019-04-06T19:47:33.953Z,38.33
2019-04-06T19:50:02.823Z,37.00
2019-04-06T19:52:31.449Z,35.57
2019-04-06T19:54:59.848Z,29.90
2019-04-06T19:57:28.281Z,32.87
2019-04-06T19:59:57.231Z,32.67
2019-04-06T20:02:26.065Z,34.13
2019-04-06T20:04:54.768Z,32.50
2019-04-06T20:07:23.132Z,34.73
2019-04-06T20:09:51.489Z,29.10
2019-04-06T20:12:19.719Z,31.00
2019-04-06T20:14:48.361Z,33.77
2019-04-06T20:17:16.790Z,31.62
2019-04-06T20:19:45.470Z,33.60
2019-04-06T20:22:13.819Z,32.28
2019-04-06T20:24:42.117Z,32.20
2019-04-06T20:27:10.514Z,34.83
2019-04-06T20:29:38.829Z,38.23
2019-04-06T20:32:07.093Z,35.53
2019-04-06T20:34:35.532Z,34.03
2019-04-06T20:37:04.945Z,36.17
2019-04-06T20:39:33.690Z,35.73
2019-04-06T20:42:02.680Z,40.10
2019-04-06T20:44:31.466Z,35.50
2019-04-06T20:46:59.854Z,35.37
2019-04-06T20:49:28.112Z,37.77
2019-04-06T20:51:58.707Z,27.53
2019-04-06T20:54:26.437Z,32.27
2019-04-06T20:56:58.145Z,30.17
2019-04-06T20:59:24.688Z,34.83
2019-04-06T21:01:53.185Z,33.37
2019-04-06T21:04:21.518Z,34.20
2019-04-06T21:06:49.767Z,31.67
2019-04-06T21:09:18.045Z,42.47
2019-04-06T21:11:46.779Z,35.10
2019-04-06T21:14:15.639Z,35.27
2019-04-06T21:16:44.567Z,30.63
2019-04-06T21:19:13.156Z,37.30
2019-04-06T21:21:41.474Z,37.67
2019-04-06T21:24:10.285Z,36.25
2019-04-06T21:26:38.920Z,36.30
2019-04-06T21:29:07.245Z,36.30
2019-04-06T21:31:36.271Z,38.60
2019-04-06T21:34:12.046Z,38.80
2019-04-06T21:36:35.129Z,37.83
2019-04-06T21:39:05.161Z,37.73
2019-04-06T21:41:33.971Z,36.30
2019-04-06T21:44:02.386Z,39.03
2019-04-06T21:46:30.697Z,41.97
2019-04-06T21:48:59.219Z,42.73
2019-04-06T21:51:27.557Z,37.13
2019-04-06T21:53:56.305Z,38.67
2019-04-06T21:56:24.904Z,41.03
2019-04-06T21:58:53.411Z,34.77
2019-04-06T22:01:21.769Z,40.67
2019-04-06T22:03:50.552Z,41.30
2019-04-06T22:06:19.402Z,37.38
2019-04-06T22:08:47.853Z,43.87
2019-04-06T22:11:16.466Z,36.57
2019-04-06T22:13:45.272Z,45.63
2019-04-06T22:16:14.258Z,39.75
2019-04-06T22:18:43.087Z,39.40
2019-04-06T22:21:11.434Z,41.48
2019-04-06T22:23:43.260Z,40.23
2019-04-06T22:26:10.897Z,40.03
2019-04-06T22:28:39.305Z,41.70
2019-04-06T22:31:07.567Z,38.83
2019-04-06T22:33:38.200Z,34.73
2019-04-06T22:36:06.662Z,38.17
2019-04-06T22:38:34.901Z,39.77
2019-04-06T22:41:03.598Z,39.33
2019-04-06T22:43:31.965Z,41.83
2019-04-06T22:46:00.242Z,33.53
2019-04-06T22:48:28.486Z,36.57
2019-04-06T22:50:56.720Z,37.80
2019-04-06T22:53:24.980Z,37.00
2019-04-06T22:55:53.219Z,40.87
2019-04-06T22:58:22.399Z,36.13
2019-04-06T23:01:07.984Z,35.93
2019-04-06T23:03:57.257Z,34.63
2019-04-06T23:06:29.973Z,39.80
2019-04-06T23:08:58.284Z,43.03
2019-04-06T23:11:26.527Z,36.75
2019-04-06T23:13:55.181Z,34.90
2019-04-06T23:16:23.576Z,35.43
2019-04-06T23:18:51.830Z,31.73
2019-04-06T23:21:20.325Z,31.97
2019-04-06T23:23:48.732Z,38.13
2019-04-06T23:26:16.997Z,38.00
2019-04-06T23:28:45.766Z,36.40
2019-04-06T23:31:14.713Z,32.30
2019-04-06T23:33:43.139Z,33.63
2019-04-06T23:36:11.937Z,37.47
2019-04-06T23:38:40.463Z,39.30
2019-04-06T23:41:09.394Z,35.00
2019-04-06T23:43:37.760Z,34.80
2019-04-06T23:46:06.395Z,32.83
2019-04-06T23:48:34.858Z,32.80
2019-04-06T23:51:03.245Z,34.30
2019-04-06T23:53:31.678Z,32.70
2019-04-06T23:56:00.156Z,38.03
2019-04-06T23:58:28.408Z,36.13
